Time;durP1;ratioP1;P1;durP2;ratioP2;P2;SDS_P1;SDS_P2;PMS_P1;PMS_P2;Temp;Humidity;BMP_temperature;BMP_pressure;BME280_temperature;BME280_humidity;BME280_pressure;Samples;Min_cycle;Max_cycle;Signal;HPM_P1;HPM_P2
2022/03/02 00:00:23;;;;;;;15.75;6.30;;;;;;;-0.47;100.00;97424.59;4954909;28;20683;-77
2022/03/02 00:02:48;;;;;;;18.15;7.55;;;;;;;-0.15;100.00;97420.50;4970202;28;20731;-76
2022/03/02 00:05:14;;;;;;;16.30;7.43;;;;;;;-0.03;100.00;97409.53;4970274;28;20035;-76
2022/03/02 00:07:40;;;;;;;13.63;6.45;;;;;;;0.06;99.18;97393.75;4954437;28;20038;-76
2022/03/02 00:10:06;;;;;;;13.30;6.45;;;;;;;0.24;96.84;97402.38;4969890;28;20033;-77
2022/03/02 00:12:33;;;;;;;9.98;4.93;;;;;;;0.36;96.30;97387.91;4971523;28;20044;-76
2022/03/02 00:14:59;;;;;;;17.15;7.22;;;;;;;0.55;94.92;97397.34;4939205;28;20031;-77
2022/03/02 00:17:25;;;;;;;14.00;7.10;;;;;;;0.65;93.78;97400.63;4970571;28;20136;-77
2022/03/02 00:19:51;;;;;;;14.55;7.28;;;;;;;0.78;93.73;97393.09;4938138;28;20075;-77
2022/03/02 00:22:18;;;;;;;12.85;6.55;;;;;;;0.84;92.28;97392.41;4938809;28;20062;-77
2022/03/02 00:24:50;;;;;;;17.77;7.15;;;;;;;0.93;90.01;97389.75;4938088;28;20148;-77
2022/03/02 00:27:20;;;;;;;12.57;6.55;;;;;;;0.91;94.06;97386.47;4968172;28;20102;-76
2022/03/02 00:29:45;;;;;;;13.60;6.65;;;;;;;0.82;96.96;97383.03;4936809;28;20124;-77
2022/03/02 00:32:11;;;;;;;13.48;6.65;;;;;;;0.77;97.81;97386.13;4935069;28;20043;-77
2022/03/02 00:34:36;;;;;;;12.68;6.82;;;;;;;0.63;100.00;97381.53;4967365;28;20856;-76
2022/03/02 00:37:02;;;;;;;15.75;7.35;;;;;;;0.73;99.38;97374.28;4937939;28;20356;-77
2022/03/02 00:39:27;;;;;;;13.50;6.10;;;;;;;0.81;97.60;97381.38;4933712;28;20049;-77
2022/03/02 00:42:06;;;;;;;19.30;6.85;;;;;;;0.90;97.13;97388.28;720928;28;10002176;-77
2022/03/02 00:44:33;;;;;;;18.08;6.95;;;;;;;1.07;96.33;97387.28;4969634;28;20327;-77
2022/03/02 00:46:58;;;;;;;13.90;7.28;;;;;;;1.20;95.13;97391.25;4968132;28;20027;-77
2022/03/02 00:49:26;;;;;;;15.77;7.10;;;;;;;1.28;96.74;97401.78;4969715;28;20038;-76
2022/03/02 00:51:54;;;;;;;14.82;6.68;;;;;;;1.28;98.49;97397.31;4937793;28;20995;-76
2022/03/02 00:54:19;;;;;;;14.75;7.00;;;;;;;1.21;99.65;97398.97;4937078;28;20376;-76
2022/03/02 00:56:45;;;;;;;15.52;6.00;;;;;;;1.04;99.62;97389.44;4939691;28;20071;-76
2022/03/02 00:59:10;;;;;;;14.15;6.63;;;;;;;1.15;99.39;97394.38;4927398;28;20090;-76
2022/03/02 01:01:36;;;;;;;13.63;6.78;;;;;;;1.21;100.00;97388.44;4935545;28;20040;-77
2022/03/02 01:04:01;;;;;;;12.88;6.93;;;;;;;1.04;100.00;97381.53;4966924;28;20084;-77
2022/03/02 01:06:26;;;;;;;14.88;6.57;;;;;;;0.91;100.00;97375.94;4939423;28;20035;-77
2022/03/02 01:08:52;;;;;;;11.77;5.80;;;;;;;0.75;100.00;97371.50;4968706;28;20043;-77
2022/03/02 01:11:17;;;;;;;13.05;6.43;;;;;;;0.69;99.80;97372.97;4968447;28;20115;-77
2022/03/02 01:13:43;;;;;;;15.07;6.43;;;;;;;0.66;100.00;97377.75;4968686;28;20859;-76
2022/03/02 01:16:09;;;;;;;10.50;6.00;;;;;;;0.76;100.00;97368.69;4936081;28;20093;-77
2022/03/02 01:18:34;;;;;;;12.63;6.57;;;;;;;0.82;100.00;97368.03;4952008;28;21016;-77
2022/03/02 01:21:00;;;;;;;17.42;6.85;;;;;;;0.78;100.00;97372.00;4936069;28;20145;-77
2022/03/02 01:23:26;;;;;;;13.32;6.28;;;;;;;0.69;100.00;97370.34;4938060;28;20118;-76
2022/03/02 01:25:51;;;;;;;12.00;6.22;;;;;;;0.58;100.00;97362.75;4968242;28;20094;-77
2022/03/02 01:28:17;;;;;;;10.80;6.57;;;;;;;0.66;100.00;97365.41;4929127;28;20438;-76
2022/03/02 01:30:43;;;;;;;11.45;6.07;;;;;;;0.78;100.00;97355.38;4938339;28;20781;-77
2022/03/02 01:33:08;;;;;;;14.82;7.20;;;;;;;0.89;100.00;97343.66;4937191;28;20583;-76
2022/03/02 01:35:34;;;;;;;11.13;5.95;;;;;;;0.86;100.00;97341.34;4940717;28;20035;-77
2022/03/02 01:37:59;;;;;;;13.00;6.90;;;;;;;0.91;100.00;97336.41;4937738;28;20062;-76
2022/03/02 01:40:25;;;;;;;11.68;6.30;;;;;;;0.77;100.00;97336.06;4937963;28;20910;-76
2022/03/02 01:42:50;;;;;;;9.93;5.35;;;;;;;0.64;100.00;97327.03;4968416;28;20162;-77
2022/03/02 01:45:17;;;;;;;15.63;6.53;;;;;;;0.78;100.00;97339.56;4939047;28;20471;-77
2022/03/02 01:47:43;;;;;;;15.20;6.88;;;;;;;0.86;100.00;97334.28;4935862;28;20039;-76
2022/03/02 01:50:11;;;;;;;11.90;6.63;;;;;;;0.81;100.00;97329.50;4935336;28;20037;-77
2022/03/02 01:52:37;;;;;;;13.00;6.45;;;;;;;0.92;100.00;97328.31;4953128;28;20039;-76
2022/03/02 01:55:04;;;;;;;13.35;6.22;;;;;;;0.93;100.00;97332.59;4967142;28;20050;-77
2022/03/02 01:57:30;;;;;;;12.40;6.30;;;;;;;0.89;100.00;97325.22;4949904;28;20635;-77
2022/03/02 01:59:55;;;;;;;14.85;6.10;;;;;;;0.71;100.00;97320.97;4935235;28;20097;-76
2022/03/02 02:02:21;;;;;;;12.13;6.28;;;;;;;0.77;100.00;97324.72;4936570;28;20044;-73
2022/03/02 02:04:47;;;;;;;9.70;5.93;;;;;;;0.83;100.00;97321.41;4969705;28;20058;-73
2022/03/02 02:07:12;;;;;;;9.75;5.40;;;;;;;0.79;100.00;97314.84;4910647;28;20266;-74
2022/03/02 02:09:38;;;;;;;11.23;5.82;;;;;;;0.60;100.00;97310.72;4951531;28;20773;-75
2022/03/02 02:12:03;;;;;;;9.95;5.28;;;;;;;0.49;100.00;97311.06;4967567;28;20050;-74
2022/03/02 02:14:29;;;;;;;13.80;6.95;;;;;;;0.57;100.00;97305.81;4951177;28;20130;-74
2022/03/02 02:16:54;;;;;;;13.70;6.45;;;;;;;0.70;100.00;97290.34;4926673;28;20039;-74
2022/03/02 02:19:20;;;;;;;11.25;5.88;;;;;;;0.77;100.00;97288.66;4949930;28;20619;-74
2022/03/02 02:21:46;;;;;;;12.60;6.35;;;;;;;0.90;100.00;97282.88;4968146;28;20768;-74
2022/03/02 02:24:13;;;;;;;13.63;7.30;;;;;;;0.93;100.00;97290.44;4966558;28;20039;-74
2022/03/02 02:26:39;;;;;;;16.30;6.70;;;;;;;0.89;100.00;97280.41;4937009;28;20067;-74
2022/03/02 02:29:05;;;;;;;14.15;6.50;;;;;;;0.97;100.00;97280.41;4935806;28;20850;-74
2022/03/02 02:31:31;;;;;;;14.05;6.10;;;;;;;0.97;96.62;97275.13;4939104;28;20054;-73
2022/03/02 02:33:57;;;;;;;15.48;6.50;;;;;;;0.95;96.75;97279.75;4966921;28;20028;-73
2022/03/02 02:36:23;;;;;;;12.50;6.30;;;;;;;0.97;97.15;97273.31;4972220;28;20158;-73
2022/03/02 02:38:48;;;;;;;12.55;6.97;;;;;;;1.08;98.17;97282.66;4940628;28;20753;-74
2022/03/02 02:41:18;;;;;;;13.73;7.05;;;;;;;1.14;96.95;97284.63;4968602;28;20034;-73
2022/03/02 02:43:46;;;;;;;11.55;6.78;;;;;;;1.12;95.72;97278.72;4939511;29;20036;-74
2022/03/02 02:46:11;;;;;;;13.85;6.70;;;;;;;1.21;96.79;97279.50;4939150;28;20047;-73
2022/03/02 02:48:38;;;;;;;11.38;6.10;;;;;;;1.26;98.57;97272.75;4937462;28;20528;-73
2022/03/02 02:51:07;;;;;;;12.38;6.18;;;;;;;1.30;98.49;97284.56;4939294;28;20142;-73
2022/03/02 02:53:33;;;;;;;12.35;6.30;;;;;;;1.33;96.46;97276.34;4938437;29;20483;-73
2022/03/02 02:55:59;;;;;;;11.73;6.57;;;;;;;1.29;98.87;97285.56;4969819;28;20044;-73
2022/03/02 02:58:25;;;;;;;11.70;6.03;;;;;;;1.36;97.56;97278.63;4969132;28;20027;-72
2022/03/02 03:00:50;;;;;;;11.93;6.63;;;;;;;1.44;100.00;97287.50;4969634;28;20039;-73
2022/03/02 03:03:17;;;;;;;12.40;5.95;;;;;;;1.24;100.00;97274.69;4938291;28;20063;-73
2022/03/02 03:05:46;;;;;;;13.20;6.43;;;;;;;1.22;99.41;97274.06;4940438;28;20135;-73
2022/03/02 03:08:13;;;;;;;11.65;6.47;;;;;;;1.27;100.00;97271.75;4968929;28;20027;-73
2022/03/02 03:10:41;;;;;;;13.98;6.82;;;;;;;1.27;96.79;97270.94;4940126;28;20027;-73
2022/03/02 03:13:08;;;;;;;12.60;6.88;;;;;;;1.34;98.81;97262.16;4936387;28;20070;-72
2022/03/02 03:15:34;;;;;;;12.45;6.43;;;;;;;1.42;99.71;97263.13;4939065;28;20871;-72
2022/03/02 03:18:01;;;;;;;12.10;5.70;;;;;;;1.43;100.00;97255.03;4952830;28;20378;-73
2022/03/02 03:20:28;;;;;;;12.23;5.75;;;;;;;1.50;100.00;97263.91;4938477;29;20035;-73
2022/03/02 03:22:55;;;;;;;12.43;6.10;;;;;;;1.37;100.00;97256.53;4938573;28;20445;-73
2022/03/02 03:25:21;;;;;;;10.38;6.07;;;;;;;1.35;98.38;97249.78;4970420;28;20129;-73
2022/03/02 03:27:48;;;;;;;11.88;6.10;;;;;;;1.36;97.34;97246.97;4939267;29;20031;-73
2022/03/02 03:30:16;;;;;;;13.40;7.18;;;;;;;1.48;97.28;97243.94;4968764;28;20039;-74
2022/03/02 03:32:42;;;;;;;13.50;6.72;;;;;;;1.56;99.12;97243.94;4937525;29;20134;-74
2022/03/02 03:35:09;;;;;;;17.85;5.93;;;;;;;1.55;98.65;97237.81;4938423;28;20151;-74
2022/03/02 03:37:34;;;;;;;9.63;5.78;;;;;;;1.48;99.84;97234.25;4940409;28;20125;-74
2022/03/02 03:40:00;;;;;;;12.50;5.88;;;;;;;1.26;100.00;97230.56;4937046;28;20031;-73
2022/03/02 03:42:26;;;;;;;12.75;5.97;;;;;;;1.11;100.00;97221.72;4937494;28;20651;-74
2022/03/02 03:44:51;;;;;;;9.32;5.38;;;;;;;1.08;98.68;97222.03;4969420;28;20033;-73
2022/03/02 03:47:18;;;;;;;15.05;6.32;;;;;;;1.06;96.18;97227.47;4936871;28;20494;-74
2022/03/02 03:49:43;;;;;;;12.00;6.60;;;;;;;1.20;98.04;97228.59;4937644;29;20051;-73
2022/03/02 03:52:09;;;;;;;12.50;5.80;;;;;;;1.29;96.87;97222.28;4935869;28;22538;-73
2022/03/02 03:54:35;;;;;;;9.75;5.50;;;;;;;1.34;98.83;97222.59;4936837;28;20039;-74
2022/03/02 03:57:01;;;;;;;10.02;5.60;;;;;;;1.48;96.97;97220.22;4983770;28;20066;-73
2022/03/02 03:59:26;;;;;;;13.30;6.25;;;;;;;1.59;96.74;97228.56;4969050;28;20042;-73
2022/03/02 04:01:52;;;;;;;11.77;5.72;;;;;;;1.67;95.75;97220.63;4935213;28;20039;-73
2022/03/02 04:04:17;;;;;;;10.10;5.72;;;;;;;1.71;97.23;97225.53;4951825;28;20034;-73
2022/03/02 04:06:43;;;;;;;12.98;5.72;;;;;;;1.53;99.36;97225.81;4970398;28;20031;-73
2022/03/02 04:09:08;;;;;;;12.85;6.05;;;;;;;1.46;99.21;97230.13;4967829;28;20123;-73
2022/03/02 04:11:34;;;;;;;12.52;5.97;;;;;;;1.35;98.73;97229.53;4969045;28;20130;-74
2022/03/02 04:13:59;;;;;;;13.82;5.65;;;;;;;1.41;98.63;97228.03;4938342;28;20391;-74
2022/03/02 04:16:25;;;;;;;11.63;5.20;;;;;;;1.43;100.00;97225.19;4930383;28;20035;-73
2022/03/02 04:18:50;;;;;;;12.15;5.50;;;;;;;1.28;96.55;97230.38;4937488;28;21116;-74
2022/03/02 04:21:16;;;;;;;10.48;5.03;;;;;;;1.35;95.31;97212.88;4930510;29;20137;-73
2022/03/02 04:23:41;;;;;;;10.45;5.38;;;;;;;1.34;91.76;97216.50;4934927;28;20051;-73
2022/03/02 04:26:07;;;;;;;11.40;5.03;;;;;;;1.29;88.76;97210.91;4936709;28;20027;-73
2022/03/02 04:28:33;;;;;;;9.75;5.32;;;;;;;1.37;90.16;97213.53;4938857;28;20035;-73
2022/03/02 04:30:58;;;;;;;9.30;5.60;;;;;;;1.46;89.83;97206.38;4952505;28;21028;-74
2022/03/02 04:33:24;;;;;;;11.82;5.47;;;;;;;1.45;89.88;97200.28;4935233;28;20914;-74
2022/03/02 04:35:49;;;;;;;8.52;4.50;;;;;;;1.30;85.51;97205.47;4938208;28;20061;-72
2022/03/02 04:38:15;;;;;;;12.70;5.30;;;;;;;1.22;85.17;97202.88;4966787;28;20050;-73
2022/03/02 04:40:41;;;;;;;12.35;5.60;;;;;;;1.24;86.57;97198.25;4966761;28;20117;-72
2022/03/02 04:43:07;;;;;;;16.92;5.57;;;;;;;1.30;88.60;97202.84;4937182;28;20043;-73
2022/03/02 04:45:34;;;;;;;9.60;5.40;;;;;;;1.40;86.71;97202.63;4938411;28;20031;-73
2022/03/02 04:48:00;;;;;;;16.83;5.90;;;;;;;1.44;87.49;97203.94;4936004;28;20942;-73
2022/03/02 04:50:27;;;;;;;10.35;5.65;;;;;;;1.45;86.87;97204.75;4967485;28;20027;-73
2022/03/02 04:52:54;;;;;;;9.68;5.45;;;;;;;1.42;88.01;97207.75;4936716;28;20043;-73
2022/03/02 04:55:20;;;;;;;11.55;5.30;;;;;;;1.40;87.43;97215.78;4968233;28;20027;-73
2022/03/02 04:57:58;;;;;;;8.00;4.72;;;;;;;1.36;88.71;97210.06;4938614;28;20028;-73
2022/03/02 05:00:30;;;;;;;13.95;5.07;;;;;;;1.26;87.16;97212.09;4968088;28;20030;-73
2022/03/02 05:02:58;;;;;;;12.23;5.88;;;;;;;1.25;87.83;97209.63;4967167;28;20038;-72
2022/03/02 05:05:26;;;;;;;12.85;6.13;;;;;;;1.25;89.29;97212.28;4939165;29;20036;-72
2022/03/02 05:07:51;;;;;;;14.40;5.68;;;;;;;1.31;nan;97207.09;4935972;28;20098;-73
2022/03/02 05:10:20;;;;;;;10.98;5.65;;;;;;;1.34;92.27;97211.25;4950322;28;20764;-72
2022/03/02 05:12:46;;;;;;;11.73;5.07;;;;;;;1.35;91.89;97212.88;4950588;28;20045;-72
2022/03/02 05:15:13;;;;;;;10.98;5.65;;;;;;;1.33;94.11;97202.50;4965340;28;20122;-72
2022/03/02 05:17:41;;;;;;;13.77;6.05;;;;;;;1.25;89.89;97199.91;4935758;28;20128;-73
2022/03/02 05:20:08;;;;;;;10.80;5.32;;;;;;;1.28;88.49;97201.38;4965528;28;20059;-73
2022/03/02 05:22:34;;;;;;;12.30;5.10;;;;;;;1.28;91.14;97199.56;4951981;28;20058;-74
2022/03/02 05:25:00;;;;;;;13.38;5.50;;;;;;;1.18;90.79;97208.69;4965939;28;20031;-74
2022/03/02 05:27:26;;;;;;;11.75;5.35;;;;;;;1.17;90.94;97209.63;4937481;29;20631;-74
2022/03/02 05:29:51;;;;;;;8.80;5.38;;;;;;;1.13;91.03;97196.00;4937057;28;20035;-74
2022/03/02 05:32:19;;;;;;;11.27;5.05;;;;;;;1.05;89.05;97201.31;4965679;28;20159;-74
2022/03/02 05:34:44;;;;;;;10.52;5.28;;;;;;;0.99;90.64;97199.34;4952592;28;20047;-73
2022/03/02 05:37:10;;;;;;;9.90;5.15;;;;;;;1.01;91.21;97198.19;4968063;28;20042;-74
2022/03/02 05:39:35;;;;;;;11.80;5.28;;;;;;;0.97;91.19;97191.59;4968261;28;20134;-74
2022/03/02 05:42:01;;;;;;;18.73;6.63;;;;;;;0.89;92.40;97188.19;4933508;29;20539;-74
2022/03/02 05:44:27;;;;;;;8.93;5.07;;;;;;;0.80;91.32;97190.03;4938345;28;20042;-73
2022/03/02 05:46:52;;;;;;;10.88;5.63;;;;;;;0.78;91.37;97187.56;4935701;28;20067;-73
2022/03/02 05:49:18;;;;;;;10.02;5.25;;;;;;;0.78;90.73;97186.75;4966739;28;20035;-72
2022/03/02 05:51:43;;;;;;;7.57;4.05;;;;;;;0.74;89.84;97182.78;4937888;29;20063;-74
2022/03/02 05:54:10;;;;;;;9.07;4.40;;;;;;;0.68;91.41;97180.81;4933886;28;20091;-74
2022/03/02 05:56:39;;;;;;;11.30;4.97;;;;;;;0.77;92.44;97177.16;4936220;28;20031;-72
2022/03/02 05:59:09;;;;;;;13.20;5.68;;;;;;;0.80;89.54;97184.75;4935091;28;20051;-74
2022/03/02 06:01:36;;;;;;;8.50;4.60;;;;;;;0.81;89.78;97181.13;4936627;28;20450;-74
2022/03/02 06:04:05;;;;;;;11.70;4.80;;;;;;;0.74;90.02;97180.97;4950335;28;20037;-73
2022/03/02 06:06:33;;;;;;;9.45;4.80;;;;;;;0.71;89.15;97185.78;4970524;28;20043;-73
2022/03/02 06:09:08;;;;;;;10.95;4.88;;;;;;;0.71;89.71;97178.69;4938508;29;20046;-76
2022/03/02 06:11:36;;;;;;;10.57;5.25;;;;;;;0.80;89.33;97187.38;4939662;28;20050;-75
2022/03/02 06:14:03;;;;;;;9.13;4.90;;;;;;;0.85;90.12;97187.69;4971596;28;20530;-76
2022/03/02 06:16:29;;;;;;;9.45;4.80;;;;;;;0.97;90.19;97180.25;4941927;28;20031;-76
2022/03/02 06:18:54;;;;;;;9.80;4.47;;;;;;;0.93;87.56;97178.94;4954545;28;20499;-75
2022/03/02 06:21:25;;;;;;;12.00;5.50;;;;;;;0.96;90.19;97181.25;4972988;28;20047;-75
2022/03/02 06:23:51;;;;;;;12.27;5.95;;;;;;;1.04;89.95;97191.75;4940111;29;20043;-78
2022/03/02 06:26:18;;;;;;;10.65;5.53;;;;;;;1.12;89.69;97183.81;4972058;28;20027;-75
2022/03/02 06:28:44;;;;;;;10.13;5.35;;;;;;;1.20;89.34;97185.59;4953317;28;20048;-74
2022/03/02 06:31:10;;;;;;;14.13;5.60;;;;;;;1.27;87.06;97189.19;4968828;28;20047;-75
2022/03/02 06:33:36;;;;;;;9.70;5.53;;;;;;;1.28;86.33;97183.72;4952663;28;20046;-75
2022/03/02 06:36:01;;;;;;;10.77;5.85;;;;;;;1.31;85.15;97193.91;4940594;29;20063;-74
2022/03/02 06:38:30;;;;;;;12.02;5.35;;;;;;;1.37;85.17;97184.50;4971163;28;20085;-75
2022/03/02 06:41:14;;;;;;;9.73;5.05;;;;;;;1.35;84.54;97189.13;4968969;28;20042;-75
2022/03/02 06:43:51;;;;;;;13.85;5.38;;;;;;;1.31;85.26;97187.84;4988542;28;20040;-75
2022/03/02 06:46:31;;;;;;;8.85;5.18;;;;;;;1.20;86.51;97180.31;4939986;29;20035;-75
2022/03/02 06:49:03;;;;;;;12.57;5.22;;;;;;;1.10;87.66;97176.06;4953523;28;20059;-75
2022/03/02 06:51:30;;;;;;;9.75;4.38;;;;;;;1.11;88.07;97182.16;4971838;28;20447;-75
2022/03/02 06:53:57;;;;;;;12.40;5.72;;;;;;;1.18;89.01;97182.31;4954504;28;20138;-75
2022/03/02 06:56:27;;;;;;;12.27;5.30;;;;;;;1.21;87.75;97190.69;4971814;28;20043;-75
2022/03/02 06:58:55;;;;;;;10.77;5.80;;;;;;;1.35;87.41;97189.97;4968576;28;20035;-75
2022/03/02 07:01:30;;;;;;;11.13;6.13;;;;;;;1.37;85.54;97187.97;4971344;28;20043;-75
2022/03/02 07:03:58;;;;;;;11.95;5.80;;;;;;;1.47;84.88;97192.19;4969909;28;20129;-76
2022/03/02 07:06:25;;;;;;;11.43;5.57;;;;;;;1.50;84.85;97190.06;4971333;28;20867;-77
2022/03/02 07:08:52;;;;;;;13.55;5.68;;;;;;;1.59;86.26;97189.00;4937482;28;20058;-77
2022/03/02 07:11:19;;;;;;;14.40;7.25;;;;;;;1.62;87.40;97187.81;4941762;28;20145;-76
2022/03/02 07:13:45;;;;;;;14.30;7.40;;;;;;;1.61;85.94;97194.09;4939044;28;20525;-77
2022/03/02 07:16:12;;;;;;;10.85;5.20;;;;;;;1.52;85.22;97195.16;4937656;28;20057;-78
2022/03/02 07:18:39;;;;;;;16.55;7.57;;;;;;;1.60;87.82;97198.56;4969810;28;20039;-76
2022/03/02 07:21:15;;;;;;;13.55;6.55;;;;;;;1.46;86.30;97190.56;4954094;28;20051;-77
2022/03/02 07:23:54;;;;;;;10.15;5.60;;;;;;;1.36;88.43;97186.31;4941704;29;20114;-78
2022/03/02 07:26:21;;;;;;;11.25;5.47;;;;;;;1.36;89.64;97188.16;4955531;28;20529;-77
2022/03/02 07:28:48;;;;;;;11.25;6.35;;;;;;;1.45;89.13;97199.47;4956914;28;20035;-77
2022/03/02 07:31:14;;;;;;;9.57;5.20;;;;;;;1.56;89.15;97191.19;4969049;28;20499;-77
2022/03/02 07:33:42;;;;;;;11.98;6.00;;;;;;;1.57;90.99;97188.38;4939431;29;20101;-77
2022/03/02 07:36:10;;;;;;;10.68;5.60;;;;;;;1.58;88.15;97191.81;4939910;29;20027;-77
2022/03/02 07:38:38;;;;;;;10.20;4.93;;;;;;;1.58;89.20;97186.53;4971268;28;20039;-77
2022/03/02 07:41:08;;;;;;;9.68;4.90;;;;;;;1.58;89.58;97183.91;4939019;29;20784;-77
2022/03/02 07:43:36;;;;;;;10.53;6.10;;;;;;;1.53;87.72;97187.06;4941191;28;20043;-78
2022/03/02 07:46:06;;;;;;;8.82;5.75;;;;;;;1.61;86.58;97194.91;4953829;28;20043;-76
2022/03/02 07:48:33;;;;;;;10.25;5.45;;;;;;;1.75;86.87;97196.00;4954865;28;20047;-77
2022/03/02 07:51:00;;;;;;;12.68;7.38;;;;;;;1.94;86.79;97202.63;4940757;28;20518;-77
2022/03/02 07:53:33;;;;;;;10.07;5.32;;;;;;;2.14;85.46;97202.97;4972297;28;20110;-77
2022/03/02 07:55:59;;;;;;;9.52;4.95;;;;;;;2.17;84.17;97205.25;4972102;28;20076;-77
2022/03/02 07:58:25;;;;;;;9.43;5.53;;;;;;;2.28;84.90;97209.31;4971628;28;20059;-77
2022/03/02 08:00:53;;;;;;;10.60;5.43;;;;;;;2.36;83.89;97209.25;4953947;28;20050;-77
2022/03/02 08:03:22;;;;;;;11.80;5.60;;;;;;;2.42;84.84;97209.34;4930179;28;20023;-77
2022/03/02 08:05:48;;;;;;;16.55;5.05;;;;;;;2.42;84.36;97212.00;4972722;28;20805;-77
2022/03/02 08:08:14;;;;;;;9.52;5.60;;;;;;;2.42;85.52;97209.34;4953817;28;20031;-78
2022/03/02 08:10:42;;;;;;;13.52;5.00;;;;;;;2.29;80.95;97217.03;4972776;28;20034;-77
2022/03/02 08:13:08;;;;;;;11.10;4.10;;;;;;;2.33;80.08;97220.97;4987530;28;20039;-80
2022/03/02 08:15:34;;;;;;;8.93;5.13;;;;;;;2.31;78.98;97214.22;4973349;28;20061;-78
2022/03/02 08:18:00;;;;;;;13.13;5.30;;;;;;;2.35;78.55;97221.63;4954879;28;20043;-78
2022/03/02 08:20:25;;;;;;;10.02;5.03;;;;;;;2.38;77.30;97226.53;4940060;28;20162;-79
2022/03/02 08:22:53;;;;;;;11.30;5.72;;;;;;;2.32;75.30;97221.16;4954635;28;20043;-78
2022/03/02 08:25:22;;;;;;;9.68;4.90;;;;;;;2.36;71.21;97214.53;4940752;28;20913;-78
2022/03/02 08:27:51;;;;;;;14.73;4.82;;;;;;;2.47;71.25;97214.06;4971207;28;20054;-79
2022/03/02 08:30:17;;;;;;;10.13;5.30;;;;;;;2.59;73.69;97214.47;4939867;28;20557;-75
2022/03/02 08:32:46;;;;;;;9.63;5.07;;;;;;;2.61;67.95;97217.75;4939232;28;20035;-76
2022/03/02 08:35:12;;;;;;;9.60;5.13;;;;;;;2.72;70.19;97212.00;4956038;28;20213;-80
2022/03/02 08:37:40;;;;;;;11.50;5.35;;;;;;;2.85;69.07;97214.03;4975727;28;20034;-76
2022/03/02 08:40:07;;;;;;;13.18;4.80;;;;;;;3.00;70.23;97205.13;4936799;28;20047;-75
2022/03/02 08:42:33;;;;;;;8.23;4.65;;;;;;;3.13;66.63;97201.03;4937341;28;20035;-76
2022/03/02 08:45:03;;;;;;;6.60;3.95;;;;;;;3.10;65.65;97196.91;4941067;28;20862;-84
2022/03/02 08:47:28;;;;;;;10.95;4.63;;;;;;;3.15;65.32;97199.81;4972669;28;20046;-73
2022/03/02 08:49:54;;;;;;;9.65;4.50;;;;;;;3.16;63.16;97195.34;4954625;28;20031;-76
2022/03/02 08:52:25;;;;;;;8.90;4.45;;;;;;;3.07;61.63;97202.56;4940718;28;20058;-74
2022/03/02 08:54:51;;;;;;;9.05;4.45;;;;;;;2.90;60.13;97199.28;4968718;28;20043;-74
2022/03/02 08:57:18;;;;;;;7.63;4.28;;;;;;;2.90;62.04;97203.75;4954420;28;20034;-75
2022/03/02 08:59:44;;;;;;;9.93;3.92;;;;;;;2.91;61.81;97198.28;4939660;28;20039;-75
2022/03/02 09:02:10;;;;;;;10.70;4.78;;;;;;;3.00;64.60;97197.19;4952484;28;20141;-73
2022/03/02 09:04:37;;;;;;;8.18;4.28;;;;;;;3.15;62.62;97191.06;4970839;28;20031;-74
2022/03/02 09:07:05;;;;;;;8.30;4.70;;;;;;;3.22;60.04;97176.94;4937151;29;20754;-76
2022/03/02 09:09:31;;;;;;;6.75;2.30;;;;;;;3.28;56.57;97178.84;4984605;28;20570;-75
2022/03/02 09:11:57;;;;;;;9.70;4.53;;;;;;;3.41;58.83;97177.34;4970169;28;20031;-73
2022/03/02 09:14:23;;;;;;;12.27;4.55;;;;;;;3.52;59.41;97177.69;4969709;28;20058;-72
2022/03/02 09:16:49;;;;;;;9.45;4.70;;;;;;;3.58;56.34;97174.31;4967713;28;20035;-71
2022/03/02 09:19:15;;;;;;;4.80;2.72;;;;;;;3.60;50.37;97163.53;4937330;28;20042;-81
2022/03/02 09:21:43;;;;;;;12.05;4.32;;;;;;;3.53;52.83;97150.22;4936685;28;20102;-71
2022/03/02 09:24:10;;;;;;;5.43;2.83;;;;;;;3.66;50.97;97159.28;4937563;28;20106;-74
2022/03/02 09:26:38;;;;;;;4.95;2.80;;;;;;;3.73;51.19;97161.00;4946523;28;20122;-75
2022/03/02 09:29:05;;;;;;;7.97;4.30;;;;;;;3.89;51.70;97152.84;4952911;28;20098;-75
2022/03/02 09:31:34;;;;;;;6.75;3.33;;;;;;;3.98;51.46;97152.72;4938487;28;20043;-74
2022/03/02 09:34:04;;;;;;;5.65;3.13;;;;;;;3.88;48.53;97147.72;4966274;28;20042;-74
2022/03/02 09:36:33;;;;;;;9.88;4.18;;;;;;;3.87;48.44;97140.78;4968313;28;20101;-75
2022/03/02 09:38:59;;;;;;;6.82;3.83;;;;;;;4.12;49.31;97155.25;4983315;28;20027;-74
2022/03/02 09:41:32;;;;;;;7.85;3.72;;;;;;;4.31;49.09;97152.97;4953442;28;20548;-74
2022/03/02 09:43:59;;;;;;;8.68;3.40;;;;;;;4.41;48.68;97148.97;4940128;28;20146;-75
2022/03/02 09:46:38;;;;;;;5.57;2.83;;;;;;;4.53;47.08;97149.28;4972146;28;20074;-74
2022/03/02 09:49:09;;;;;;;7.78;3.75;;;;;;;4.59;46.70;97151.16;4938596;29;20050;-75
2022/03/02 09:51:37;;;;;;;7.10;2.83;;;;;;;4.42;44.67;97142.66;4942723;28;20031;-74
2022/03/02 09:54:04;;;;;;;4.90;2.63;;;;;;;4.43;44.41;97157.53;4973431;28;20117;-73
2022/03/02 09:56:31;;;;;;;6.00;3.15;;;;;;;4.53;45.12;97149.28;4934409;29;20065;-74
2022/03/02 09:58:59;;;;;;;8.00;3.38;;;;;;;4.58;43.84;97143.38;4940564;28;20035;-75
2022/03/02 10:01:26;;;;;;;10.27;3.92;;;;;;;4.70;45.17;97140.00;4942194;28;20267;-74
2022/03/02 10:03:53;;;;;;;5.47;2.70;;;;;;;4.75;44.02;97139.44;4972055;28;20490;-75
2022/03/02 10:06:20;;;;;;;8.18;4.43;;;;;;;5.10;44.19;97132.25;4942744;28;20031;-74
2022/03/02 10:08:48;;;;;;;6.00;3.15;;;;;;;5.48;43.93;97134.44;4972102;28;20598;-75
2022/03/02 10:11:18;;;;;;;7.18;3.38;;;;;;;5.76;42.72;97140.44;4956261;28;20035;-74
2022/03/02 10:13:44;;;;;;;4.13;2.30;;;;;;;5.95;41.06;97154.00;4958068;28;20039;-75
2022/03/02 10:16:25;;;;;;;5.25;2.88;;;;;;;6.56;40.62;97149.31;4958004;28;20043;-74
2022/03/02 10:18:59;;;;;;;6.63;3.63;;;;;;;8.45;39.30;97153.41;4956077;28;20489;-75
2022/03/02 10:21:41;;;;;;;6.78;4.18;;;;;;;10.54;34.31;97152.06;4971815;28;20043;-74
2022/03/02 10:24:13;;;;;;;8.13;4.55;;;;;;;11.77;31.72;97142.13;4955044;28;20054;-75
2022/03/02 10:27:06;;;;;;;8.00;3.60;;;;;;;12.60;29.01;97136.09;4973340;28;21027;-75
2022/03/02 10:29:46;;;;;;;7.80;4.03;;;;;;;13.15;28.54;97134.47;4955259;28;20051;-76
2022/03/02 10:32:17;;;;;;;8.73;4.20;;;;;;;13.88;27.42;97134.06;4950650;28;20045;-76
2022/03/02 10:34:49;;;;;;;9.13;3.08;;;;;;;13.54;26.83;97133.41;4988199;28;20071;-77
2022/03/02 10:37:20;;;;;;;7.50;3.78;;;;;;;14.11;26.83;97130.25;4973403;28;20039;-76
2022/03/02 10:40:05;;;;;;;7.05;3.42;;;;;;;13.36;26.34;97131.81;4956015;28;20070;-76
2022/03/02 10:42:35;;;;;;;8.27;4.00;;;;;;;13.63;26.48;97128.41;4958251;28;20063;-77
2022/03/02 10:45:10;;;;;;;7.20;3.90;;;;;;;13.68;25.47;97128.44;4968273;28;20066;-77
2022/03/02 10:47:45;;;;;;;9.80;4.10;;;;;;;14.99;25.90;97130.69;4989803;28;20043;-75
2022/03/02 10:50:11;;;;;;;7.40;2.80;;;;;;;14.66;23.94;97134.53;4938869;28;20065;-76
2022/03/02 10:52:38;;;;;;;6.07;3.90;;;;;;;14.42;24.45;97122.44;4975861;28;20063;-78
2022/03/02 10:55:07;;;;;;;7.57;4.10;;;;;;;17.05;23.48;97118.25;4954315;28;20117;-77
2022/03/02 10:57:33;;;;;;;7.63;4.38;;;;;;;18.65;21.87;97117.97;4941510;28;20042;-77
2022/03/02 11:00:09;;;;;;;5.03;3.03;;;;;;;18.50;20.79;97123.50;4969763;28;20046;-77
2022/03/02 11:02:40;;;;;;;7.53;4.10;;;;;;;20.00;19.92;97101.59;4953237;28;20047;-75
2022/03/02 11:05:09;;;;;;;7.18;3.80;;;;;;;20.31;18.72;97093.78;4948323;28;20064;-77
2022/03/02 11:07:35;;;;;;;6.53;3.50;;;;;;;19.14;19.09;97098.84;4970880;28;20047;-76
2022/03/02 11:10:05;;;;;;;5.35;3.35;;;;;;;20.16;18.50;97099.47;4987800;28;20043;-76
2022/03/02 11:12:31;;;;;;;5.57;3.40;;;;;;;21.77;18.93;97088.72;4942173;28;20070;-76
2022/03/02 11:15:02;;;;;;;6.68;3.92;;;;;;;21.80;19.05;97092.75;4971741;28;20041;-77
2022/03/02 11:17:29;;;;;;;8.18;3.78;;;;;;;22.66;17.25;97081.81;4987988;28;20027;-77
2022/03/02 11:19:56;;;;;;;6.30;3.67;;;;;;;18.73;18.06;97089.47;4954900;28;20311;-77
2022/03/02 11:22:24;;;;;;;6.68;3.50;;;;;;;17.18;19.44;97085.22;4939495;28;20171;-77
2022/03/02 11:24:59;;;;;;;5.82;3.60;;;;;;;17.83;19.68;97087.94;4971822;28;20168;-76
2022/03/02 11:27:27;;;;;;;5.28;3.42;;;;;;;17.61;19.32;97082.09;4956095;28;20109;-77
2022/03/02 11:30:12;;;;;;;6.75;3.92;;;;;;;18.84;19.76;97077.44;4941103;28;20114;-77
2022/03/02 11:32:41;;;;;;;15.65;3.53;;;;;;;20.00;17.84;97074.44;4986714;28;20210;-77
2022/03/02 11:35:09;;;;;;;7.47;4.03;;;;;;;22.48;18.87;97068.03;4596616;28;9999940;-77